Legend :    VFR   Marginal VFR   IFR   Intensive IFR   Very Intensive IFR
Visi :
Ceiling :
>= 8 km
>= 3000ft
5 to 8 km
1000 to 3000 ft
1500m to 5 km
500 to 1000 ft
800 to 1500m
200 to 500 ft
< 800m
< 200 ft
Symbols :   Thunderstorms  Fog  Heavy snow  Heavy precipitations  Wind > 20 kt






- Airport Elevation : 1333 ft
- IATA code : ICT


KICT - Wichita Mid Continent

CURRENT METAR :
  • 050253Z 15010KT 10SM FEW150 SCT180 BKN220 29/22 A2974 RMK AO2 SLP054 T02940217 51009

EXPIRED METARs :
  • 050153Z 14011KT 10SM FEW120 SCT150 BKN180 BKN220 31/22 A2974 RMK AO2 SLP052 T03060217
  • 050053Z 14009KT 10SM FEW150 BKN180 BKN220 32/22 A2973 RMK AO2 SLP049 T03170222

TAF KICT
Valid from the 05 at 00:00 until the 06 at 00:00 UTC


042320Z 0500/0524 15008KT P6SM SCT250
FM050600 21009KT P6SM FEW250
FM051700 16010KT P6SM SKC
KZKC FIR / North America


LOGIN :  

Disclaimer |     EN      FR      IT 



MET'MAP, your aeronautical weather chart ! - Copyright ORBIFLY December 2007 - Disclaimer


ORBIFLY MET'MAP TEAM :

Programming & Development : Alexandra Zaïnal
Concept & original design : Baudouin d'Aumeries
Assistance for programming : Marc-Olivier Méhu
Technical & hardware support : Manuel Goepfert

Contact : metmap@orbifly.com




SOURCES & CREDITS :

   NOAA       Earth
Advisory